sensor_id;sensor_type;location;lat;lon;timestamp;P1;durP1;ratioP1;P2;durP2;ratioP2
5199;SDS011;2619;47.868;11.892;2023-03-14T00:02:18;2.97;;;1.60;;
5199;SDS011;2619;47.868;11.892;2023-03-14T00:04:44;2.70;;;1.10;;
5199;SDS011;2619;47.868;11.892;2023-03-14T00:07:10;2.10;;;1.00;;
5199;SDS011;2619;47.868;11.892;2023-03-14T00:09:37;2.00;;;1.00;;
5199;SDS011;2619;47.868;11.892;2023-03-14T00:12:02;6.47;;;1.33;;
5199;SDS011;2619;47.868;11.892;2023-03-14T00:14:29;2.93;;;1.10;;
5199;SDS011;2619;47.868;11.892;2023-03-14T00:16:56;2.50;;;1.13;;
5199;SDS011;2619;47.868;11.892;2023-03-14T00:19:22;2.23;;;0.97;;
5199;SDS011;2619;47.868;11.892;2023-03-14T00:21:47;3.00;;;1.00;;
5199;SDS011;2619;47.868;11.892;2023-03-14T00:24:13;2.37;;;1.43;;
5199;SDS011;2619;47.868;11.892;2023-03-14T00:26:39;2.43;;;1.17;;
5199;SDS011;2619;47.868;11.892;2023-03-14T00:29:04;2.70;;;1.00;;
5199;SDS011;2619;47.868;11.892;2023-03-14T00:31:30;3.40;;;1.20;;
5199;SDS011;2619;47.868;11.892;2023-03-14T00:33:56;2.30;;;0.90;;
5199;SDS011;2619;47.868;11.892;2023-03-14T00:36:21;2.37;;;1.13;;
5199;SDS011;2619;47.868;11.892;2023-03-14T00:38:49;2.30;;;1.17;;
5199;SDS011;2619;47.868;11.892;2023-03-14T00:41:22;2.57;;;1.10;;
5199;SDS011;2619;47.868;11.892;2023-03-14T00:43:48;3.10;;;1.10;;
5199;SDS011;2619;47.868;11.892;2023-03-14T00:46:14;2.60;;;1.10;;
5199;SDS011;2619;47.868;11.892;2023-03-14T00:48:40;2.27;;;1.30;;
5199;SDS011;2619;47.868;11.892;2023-03-14T00:51:07;2.30;;;1.17;;
5199;SDS011;2619;47.868;11.892;2023-03-14T00:53:37;4.70;;;1.20;;
5199;SDS011;2619;47.868;11.892;2023-03-14T00:56:04;2.40;;;1.13;;
5199;SDS011;2619;47.868;11.892;2023-03-14T00:58:31;3.97;;;1.50;;
5199;SDS011;2619;47.868;11.892;2023-03-14T01:00:57;7.73;;;1.50;;
5199;SDS011;2619;47.868;11.892;2023-03-14T01:03:23;2.07;;;1.00;;
5199;SDS011;2619;47.868;11.892;2023-03-14T01:05:49;2.23;;;1.17;;
5199;SDS011;2619;47.868;11.892;2023-03-14T01:08:15;3.40;;;0.70;;
5199;SDS011;2619;47.868;11.892;2023-03-14T01:10:41;1.87;;;0.90;;
5199;SDS011;2619;47.868;11.892;2023-03-14T01:13:07;2.57;;;1.17;;
5199;SDS011;2619;47.868;11.892;2023-03-14T01:15:34;2.27;;;1.10;;
5199;SDS011;2619;47.868;11.892;2023-03-14T01:18:01;2.63;;;0.80;;
5199;SDS011;2619;47.868;11.892;2023-03-14T01:20:27;3.67;;;1.03;;
5199;SDS011;2619;47.868;11.892;2023-03-14T01:22:53;6.23;;;1.10;;
5199;SDS011;2619;47.868;11.892;2023-03-14T01:25:19;2.20;;;0.87;;
5199;SDS011;2619;47.868;11.892;2023-03-14T01:27:44;2.50;;;0.70;;
5199;SDS011;2619;47.868;11.892;2023-03-14T01:30:11;1.70;;;0.53;;
5199;SDS011;2619;47.868;11.892;2023-03-14T01:32:37;2.00;;;0.60;;
5199;SDS011;2619;47.868;11.892;2023-03-14T01:35:03;3.33;;;1.00;;
5199;SDS011;2619;47.868;11.892;2023-03-14T01:37:29;2.23;;;0.50;;
5199;SDS011;2619;47.868;11.892;2023-03-14T01:39:55;1.63;;;0.60;;
5199;SDS011;2619;47.868;11.892;2023-03-14T01:42:21;1.73;;;0.70;;
5199;SDS011;2619;47.868;11.892;2023-03-14T01:44:51;3.40;;;0.60;;
5199;SDS011;2619;47.868;11.892;2023-03-14T01:47:17;2.10;;;0.80;;
5199;SDS011;2619;47.868;11.892;2023-03-14T01:49:43;1.80;;;0.50;;
5199;SDS011;2619;47.868;11.892;2023-03-14T01:52:32;1.87;;;0.60;;
5199;SDS011;2619;47.868;11.892;2023-03-14T01:55:12;1.77;;;0.60;;
5199;SDS011;2619;47.868;11.892;2023-03-14T01:57:43;1.70;;;0.60;;
5199;SDS011;2619;47.868;11.892;2023-03-14T02:00:13;1.40;;;0.37;;
5199;SDS011;2619;47.868;11.892;2023-03-14T02:02:45;3.10;;;0.70;;
5199;SDS011;2619;47.868;11.892;2023-03-14T02:05:16;2.43;;;0.47;;
5199;SDS011;2619;47.868;11.892;2023-03-14T02:07:49;2.50;;;0.60;;
5199;SDS011;2619;47.868;11.892;2023-03-14T02:10:21;1.50;;;0.50;;
5199;SDS011;2619;47.868;11.892;2023-03-14T02:12:53;2.83;;;2.03;;
5199;SDS011;2619;47.868;11.892;2023-03-14T02:15:21;4.57;;;0.90;;
5199;SDS011;2619;47.868;11.892;2023-03-14T02:17:48;1.40;;;0.40;;
5199;SDS011;2619;47.868;11.892;2023-03-14T02:20:18;1.50;;;0.37;;
5199;SDS011;2619;47.868;11.892;2023-03-14T02:22:49;1.87;;;0.67;;
5199;SDS011;2619;47.868;11.892;2023-03-14T02:25:24;1.73;;;0.60;;
5199;SDS011;2619;47.868;11.892;2023-03-14T02:27:56;2.90;;;0.60;;
5199;SDS011;2619;47.868;11.892;2023-03-14T02:30:27;1.43;;;0.50;;
5199;SDS011;2619;47.868;11.892;2023-03-14T02:32:59;1.70;;;0.57;;
5199;SDS011;2619;47.868;11.892;2023-03-14T02:35:39;2.03;;;0.60;;
5199;SDS011;2619;47.868;11.892;2023-03-14T02:38:19;1.50;;;0.40;;
5199;SDS011;2619;47.868;11.892;2023-03-14T02:40:46;1.60;;;0.70;;
5199;SDS011;2619;47.868;11.892;2023-03-14T02:43:12;2.10;;;0.70;;
5199;SDS011;2619;47.868;11.892;2023-03-14T02:45:39;3.73;;;0.63;;
5199;SDS011;2619;47.868;11.892;2023-03-14T02:50:52;2.13;;;0.60;;
5199;SDS011;2619;47.868;11.892;2023-03-14T02:53:24;2.47;;;0.83;;
5199;SDS011;2619;47.868;11.892;2023-03-14T02:55:51;1.60;;;0.53;;
5199;SDS011;2619;47.868;11.892;2023-03-14T02:58:17;2.63;;;0.57;;
5199;SDS011;2619;47.868;11.892;2023-03-14T03:00:44;1.97;;;0.70;;
5199;SDS011;2619;47.868;11.892;2023-03-14T03:03:10;1.70;;;0.47;;
5199;SDS011;2619;47.868;11.892;2023-03-14T03:05:36;1.30;;;0.50;;
5199;SDS011;2619;47.868;11.892;2023-03-14T03:08:02;1.30;;;0.37;;
5199;SDS011;2619;47.868;11.892;2023-03-14T03:10:28;1.30;;;0.37;;
5199;SDS011;2619;47.868;11.892;2023-03-14T03:12:54;1.73;;;0.50;;
5199;SDS011;2619;47.868;11.892;2023-03-14T03:15:20;1.60;;;0.30;;
5199;SDS011;2619;47.868;11.892;2023-03-14T03:17:45;2.00;;;0.53;;
5199;SDS011;2619;47.868;11.892;2023-03-14T03:20:11;1.33;;;0.40;;
5199;SDS011;2619;47.868;11.892;2023-03-14T03:22:37;1.40;;;0.50;;
5199;SDS011;2619;47.868;11.892;2023-03-14T03:25:04;1.50;;;0.30;;
5199;SDS011;2619;47.868;11.892;2023-03-14T03:27:32;1.90;;;0.50;;
5199;SDS011;2619;47.868;11.892;2023-03-14T03:29:59;1.40;;;0.40;;
5199;SDS011;2619;47.868;11.892;2023-03-14T03:32:25;1.50;;;0.50;;
5199;SDS011;2619;47.868;11.892;2023-03-14T03:34:51;1.30;;;0.33;;
5199;SDS011;2619;47.868;11.892;2023-03-14T03:37:17;1.30;;;0.30;;
5199;SDS011;2619;47.868;11.892;2023-03-14T03:39:42;1.57;;;0.40;;
5199;SDS011;2619;47.868;11.892;2023-03-14T03:42:08;1.20;;;0.30;;
5199;SDS011;2619;47.868;11.892;2023-03-14T03:44:34;1.30;;;0.40;;
5199;SDS011;2619;47.868;11.892;2023-03-14T03:47:00;2.03;;;0.40;;
5199;SDS011;2619;47.868;11.892;2023-03-14T03:49:29;1.50;;;0.40;;
5199;SDS011;2619;47.868;11.892;2023-03-14T03:51:56;1.60;;;0.40;;
5199;SDS011;2619;47.868;11.892;2023-03-14T03:54:22;1.30;;;0.30;;
5199;SDS011;2619;47.868;11.892;2023-03-14T03:56:48;1.33;;;0.30;;
5199;SDS011;2619;47.868;11.892;2023-03-14T03:59:13;1.20;;;0.30;;
5199;SDS011;2619;47.868;11.892;2023-03-14T04:01:39;2.90;;;0.33;;
5199;SDS011;2619;47.868;11.892;2023-03-14T04:04:05;1.30;;;0.30;;
5199;SDS011;2619;47.868;11.892;2023-03-14T04:06:30;1.20;;;0.30;;
5199;SDS011;2619;47.868;11.892;2023-03-14T04:08:56;1.60;;;0.40;;
5199;SDS011;2619;47.868;11.892;2023-03-14T04:11:21;3.63;;;0.43;;
5199;SDS011;2619;47.868;11.892;2023-03-14T04:13:47;1.40;;;0.40;;
5199;SDS011;2619;47.868;11.892;2023-03-14T04:16:17;1.30;;;0.30;;
5199;SDS011;2619;47.868;11.892;2023-03-14T04:18:44;1.30;;;0.30;;
5199;SDS011;2619;47.868;11.892;2023-03-14T04:21:10;1.60;;;0.30;;
5199;SDS011;2619;47.868;11.892;2023-03-14T04:23:36;1.30;;;0.30;;
5199;SDS011;2619;47.868;11.892;2023-03-14T04:26:01;1.30;;;0.30;;
5199;SDS011;2619;47.868;11.892;2023-03-14T04:28:27;1.40;;;0.30;;
5199;SDS011;2619;47.868;11.892;2023-03-14T04:30:53;1.97;;;0.40;;
5199;SDS011;2619;47.868;11.892;2023-03-14T04:33:18;1.20;;;0.30;;
5199;SDS011;2619;47.868;11.892;2023-03-14T04:35:44;1.20;;;0.30;;
5199;SDS011;2619;47.868;11.892;2023-03-14T04:38:10;1.20;;;0.30;;
5199;SDS011;2619;47.868;11.892;2023-03-14T04:40:40;4.73;;;0.50;;
5199;SDS011;2619;47.868;11.892;2023-03-14T04:43:07;1.30;;;0.40;;
5199;SDS011;2619;47.868;11.892;2023-03-14T04:45:34;2.93;;;0.50;;
5199;SDS011;2619;47.868;11.892;2023-03-14T04:48:00;1.20;;;0.30;;
5199;SDS011;2619;47.868;11.892;2023-03-14T04:50:27;1.40;;;0.40;;
5199;SDS011;2619;47.868;11.892;2023-03-14T04:52:52;2.03;;;0.40;;
5199;SDS011;2619;47.868;11.892;2023-03-14T04:55:18;1.67;;;0.40;;
5199;SDS011;2619;47.868;11.892;2023-03-14T04:57:43;4.73;;;0.40;;
5199;SDS011;2619;47.868;11.892;2023-03-14T05:00:09;1.30;;;0.30;;
5199;SDS011;2619;47.868;11.892;2023-03-14T05:02:36;1.30;;;0.40;;
5199;SDS011;2619;47.868;11.892;2023-03-14T05:05:01;1.93;;;0.70;;
5199;SDS011;2619;47.868;11.892;2023-03-14T05:07:27;1.20;;;0.30;;
5199;SDS011;2619;47.868;11.892;2023-03-14T05:09:52;1.20;;;0.30;;
5199;SDS011;2619;47.868;11.892;2023-03-14T05:12:19;1.37;;;0.30;;
5199;SDS011;2619;47.868;11.892;2023-03-14T05:14:45;1.30;;;0.30;;
5199;SDS011;2619;47.868;11.892;2023-03-14T05:17:11;1.20;;;0.30;;
5199;SDS011;2619;47.868;11.892;2023-03-14T05:19:39;1.70;;;0.30;;
5199;SDS011;2619;47.868;11.892;2023-03-14T05:22:05;2.13;;;0.40;;
5199;SDS011;2619;47.868;11.892;2023-03-14T05:24:30;1.20;;;0.27;;
5199;SDS011;2619;47.868;11.892;2023-03-14T05:26:56;1.20;;;0.30;;
5199;SDS011;2619;47.868;11.892;2023-03-14T05:29:22;1.30;;;0.40;;
5199;SDS011;2619;47.868;11.892;2023-03-14T05:31:47;1.30;;;0.40;;
5199;SDS011;2619;47.868;11.892;2023-03-14T05:34:13;1.20;;;0.30;;
5199;SDS011;2619;47.868;11.892;2023-03-14T05:36:38;2.40;;;0.50;;
5199;SDS011;2619;47.868;11.892;2023-03-14T05:39:04;1.20;;;0.30;;
5199;SDS011;2619;47.868;11.892;2023-03-14T05:41:30;3.20;;;0.50;;
5199;SDS011;2619;47.868;11.892;2023-03-14T05:43:55;1.30;;;0.30;;
5199;SDS011;2619;47.868;11.892;2023-03-14T05:46:21;1.23;;;0.30;;
5199;SDS011;2619;47.868;11.892;2023-03-14T05:48:46;1.23;;;0.30;;
5199;SDS011;2619;47.868;11.892;2023-03-14T05:51:12;1.20;;;0.30;;
5199;SDS011;2619;47.868;11.892;2023-03-14T05:53:37;1.33;;;0.30;;
5199;SDS011;2619;47.868;11.892;2023-03-14T05:56:03;1.37;;;0.30;;
5199;SDS011;2619;47.868;11.892;2023-03-14T05:58:29;2.00;;;0.40;;
5199;SDS011;2619;47.868;11.892;2023-03-14T06:00:54;1.30;;;0.30;;
5199;SDS011;2619;47.868;11.892;2023-03-14T06:03:20;1.40;;;0.30;;
5199;SDS011;2619;47.868;11.892;2023-03-14T06:05:46;1.20;;;0.30;;
5199;SDS011;2619;47.868;11.892;2023-03-14T06:08:14;1.40;;;0.33;;
5199;SDS011;2619;47.868;11.892;2023-03-14T06:10:39;1.40;;;0.40;;
5199;SDS011;2619;47.868;11.892;2023-03-14T06:13:05;1.20;;;0.30;;
5199;SDS011;2619;47.868;11.892;2023-03-14T06:15:30;2.13;;;0.30;;
5199;SDS011;2619;47.868;11.892;2023-03-14T06:17:57;1.70;;;0.40;;
5199;SDS011;2619;47.868;11.892;2023-03-14T06:20:23;1.90;;;0.40;;
5199;SDS011;2619;47.868;11.892;2023-03-14T06:22:49;2.80;;;0.40;;
5199;SDS011;2619;47.868;11.892;2023-03-14T06:25:14;2.50;;;0.50;;
5199;SDS011;2619;47.868;11.892;2023-03-14T06:27:40;2.63;;;0.47;;
5199;SDS011;2619;47.868;11.892;2023-03-14T06:30:06;1.50;;;0.40;;
5199;SDS011;2619;47.868;11.892;2023-03-14T06:32:32;1.37;;;0.40;;
5199;SDS011;2619;47.868;11.892;2023-03-14T06:34:57;7.10;;;0.90;;
5199;SDS011;2619;47.868;11.892;2023-03-14T06:37:26;3.30;;;0.83;;
5199;SDS011;2619;47.868;11.892;2023-03-14T06:39:53;4.03;;;0.50;;
5199;SDS011;2619;47.868;11.892;2023-03-14T06:42:19;1.30;;;0.40;;
5199;SDS011;2619;47.868;11.892;2023-03-14T06:44:45;2.50;;;0.40;;
5199;SDS011;2619;47.868;11.892;2023-03-14T06:47:10;1.40;;;0.30;;
5199;SDS011;2619;47.868;11.892;2023-03-14T06:49:36;1.60;;;0.50;;
5199;SDS011;2619;47.868;11.892;2023-03-14T06:52:01;3.70;;;0.50;;
5199;SDS011;2619;47.868;11.892;2023-03-14T06:54:27;2.33;;;0.43;;
5199;SDS011;2619;47.868;11.892;2023-03-14T06:56:53;1.30;;;0.40;;
5199;SDS011;2619;47.868;11.892;2023-03-14T06:59:18;1.70;;;0.40;;
5199;SDS011;2619;47.868;11.892;2023-03-14T07:01:44;1.57;;;0.40;;
5199;SDS011;2619;47.868;11.892;2023-03-14T07:04:09;1.30;;;0.40;;
5199;SDS011;2619;47.868;11.892;2023-03-14T07:06:35;2.47;;;0.70;;
5199;SDS011;2619;47.868;11.892;2023-03-14T07:09:02;1.50;;;0.40;;
5199;SDS011;2619;47.868;11.892;2023-03-14T07:11:27;2.43;;;0.70;;
5199;SDS011;2619;47.868;11.892;2023-03-14T07:13:53;4.00;;;0.50;;
5199;SDS011;2619;47.868;11.892;2023-03-14T07:16:19;2.40;;;0.67;;
5199;SDS011;2619;47.868;11.892;2023-03-14T07:18:45;1.90;;;0.60;;
5199;SDS011;2619;47.868;11.892;2023-03-14T07:21:11;2.70;;;1.30;;
5199;SDS011;2619;47.868;11.892;2023-03-14T07:23:37;3.87;;;1.20;;
5199;SDS011;2619;47.868;11.892;2023-03-14T07:26:03;3.30;;;1.60;;
5199;SDS011;2619;47.868;11.892;2023-03-14T07:28:29;3.80;;;2.13;;
5199;SDS011;2619;47.868;11.892;2023-03-14T07:30:55;2.07;;;1.43;;
5199;SDS011;2619;47.868;11.892;2023-03-14T07:33:21;2.57;;;1.50;;
5199;SDS011;2619;47.868;11.892;2023-03-14T07:35:47;2.03;;;1.40;;
5199;SDS011;2619;47.868;11.892;2023-03-14T07:38:13;2.40;;;1.50;;
5199;SDS011;2619;47.868;11.892;2023-03-14T07:40:39;2.87;;;1.40;;
5199;SDS011;2619;47.868;11.892;2023-03-14T07:43:05;2.87;;;1.30;;
5199;SDS011;2619;47.868;11.892;2023-03-14T07:45:30;3.50;;;2.20;;
5199;SDS011;2619;47.868;11.892;2023-03-14T07:47:56;3.00;;;2.00;;
5199;SDS011;2619;47.868;11.892;2023-03-14T07:50:23;3.40;;;1.70;;
5199;SDS011;2619;47.868;11.892;2023-03-14T07:52:49;3.63;;;1.57;;
5199;SDS011;2619;47.868;11.892;2023-03-14T07:55:14;3.40;;;1.80;;
5199;SDS011;2619;47.868;11.892;2023-03-14T07:57:40;3.47;;;1.77;;
5199;SDS011;2619;47.868;11.892;2023-03-14T08:00:06;3.60;;;1.70;;
5199;SDS011;2619;47.868;11.892;2023-03-14T08:02:33;2.40;;;1.57;;
5199;SDS011;2619;47.868;11.892;2023-03-14T08:04:58;3.17;;;1.70;;
5199;SDS011;2619;47.868;11.892;2023-03-14T08:07:24;2.63;;;1.53;;
5199;SDS011;2619;47.868;11.892;2023-03-14T08:09:49;2.67;;;1.57;;
5199;SDS011;2619;47.868;11.892;2023-03-14T08:12:15;2.00;;;1.17;;
5199;SDS011;2619;47.868;11.892;2023-03-14T08:14:41;2.30;;;1.23;;
5199;SDS011;2619;47.868;11.892;2023-03-14T08:17:06;2.70;;;1.57;;
5199;SDS011;2619;47.868;11.892;2023-03-14T08:19:33;2.80;;;1.30;;
5199;SDS011;2619;47.868;11.892;2023-03-14T08:21:59;4.70;;;1.07;;
5199;SDS011;2619;47.868;11.892;2023-03-14T08:24:24;5.40;;;3.73;;
5199;SDS011;2619;47.868;11.892;2023-03-14T08:26:50;5.20;;;3.90;;
5199;SDS011;2619;47.868;11.892;2023-03-14T08:29:15;6.73;;;3.20;;
5199;SDS011;2619;47.868;11.892;2023-03-14T08:31:41;4.30;;;3.20;;
5199;SDS011;2619;47.868;11.892;2023-03-14T08:34:07;4.57;;;3.13;;
5199;SDS011;2619;47.868;11.892;2023-03-14T08:36:32;3.90;;;2.70;;
5199;SDS011;2619;47.868;11.892;2023-03-14T08:38:58;2.63;;;1.60;;
5199;SDS011;2619;47.868;11.892;2023-03-14T08:41:24;2.80;;;1.90;;
5199;SDS011;2619;47.868;11.892;2023-03-14T08:43:49;4.07;;;3.07;;
5199;SDS011;2619;47.868;11.892;2023-03-14T08:46:15;2.90;;;2.37;;
5199;SDS011;2619;47.868;11.892;2023-03-14T08:48:41;5.03;;;3.70;;
5199;SDS011;2619;47.868;11.892;2023-03-14T08:51:09;5.17;;;3.80;;
5199;SDS011;2619;47.868;11.892;2023-03-14T08:53:37;5.37;;;3.63;;
5199;SDS011;2619;47.868;11.892;2023-03-14T08:56:03;5.10;;;3.80;;
5199;SDS011;2619;47.868;11.892;2023-03-14T08:58:31;6.43;;;4.23;;
5199;SDS011;2619;47.868;11.892;2023-03-14T09:00:57;35.20;;;16.63;;
5199;SDS011;2619;47.868;11.892;2023-03-14T09:03:23;25.70;;;12.33;;
5199;SDS011;2619;47.868;11.892;2023-03-14T09:05:49;15.00;;;10.00;;
5199;SDS011;2619;47.868;11.892;2023-03-14T09:08:15;14.50;;;7.27;;
5199;SDS011;2619;47.868;11.892;2023-03-14T09:10:41;6.90;;;4.80;;
5199;SDS011;2619;47.868;11.892;2023-03-14T09:13:07;5.70;;;4.10;;
5199;SDS011;2619;47.868;11.892;2023-03-14T09:15:32;5.70;;;4.10;;
5199;SDS011;2619;47.868;11.892;2023-03-14T09:17:58;5.90;;;4.00;;
5199;SDS011;2619;47.868;11.892;2023-03-14T09:20:24;7.20;;;3.33;;
5199;SDS011;2619;47.868;11.892;2023-03-14T09:22:49;3.17;;;2.50;;
5199;SDS011;2619;47.868;11.892;2023-03-14T09:25:15;3.50;;;2.70;;
5199;SDS011;2619;47.868;11.892;2023-03-14T09:27:41;3.90;;;2.97;;
5199;SDS011;2619;47.868;11.892;2023-03-14T09:30:06;6.03;;;3.47;;
5199;SDS011;2619;47.868;11.892;2023-03-14T09:32:33;2.80;;;1.90;;
5199;SDS011;2619;47.868;11.892;2023-03-14T09:34:59;2.67;;;0.80;;
5199;SDS011;2619;47.868;11.892;2023-03-14T09:37:24;2.50;;;1.33;;
5199;SDS011;2619;47.868;11.892;2023-03-14T09:39:50;2.00;;;0.70;;
5199;SDS011;2619;47.868;11.892;2023-03-14T09:42:21;1.40;;;0.40;;
5199;SDS011;2619;47.868;11.892;2023-03-14T09:47:18;1.57;;;0.43;;
5199;SDS011;2619;47.868;11.892;2023-03-14T09:49:44;1.73;;;0.60;;
5199;SDS011;2619;47.868;11.892;2023-03-14T09:52:22;2.20;;;0.80;;
5199;SDS011;2619;47.868;11.892;2023-03-14T09:54:52;1.43;;;0.40;;
5199;SDS011;2619;47.868;11.892;2023-03-14T09:57:23;1.90;;;0.60;;
5199;SDS011;2619;47.868;11.892;2023-03-14T09:59:51;1.67;;;0.50;;
5199;SDS011;2619;47.868;11.892;2023-03-14T10:02:20;3.10;;;0.40;;
5199;SDS011;2619;47.868;11.892;2023-03-14T10:04:53;2.50;;;0.40;;
5199;SDS011;2619;47.868;11.892;2023-03-14T10:07:25;3.50;;;0.40;;
5199;SDS011;2619;47.868;11.892;2023-03-14T10:09:53;1.30;;;0.30;;
5199;SDS011;2619;47.868;11.892;2023-03-14T10:12:20;1.30;;;0.40;;
5199;SDS011;2619;47.868;11.892;2023-03-14T10:14:57;1.30;;;0.40;;
5199;SDS011;2619;47.868;11.892;2023-03-14T10:17:29;1.27;;;0.30;;
5199;SDS011;2619;47.868;11.892;2023-03-14T10:19:56;1.27;;;0.30;;
5199;SDS011;2619;47.868;11.892;2023-03-14T10:22:24;2.17;;;0.40;;
5199;SDS011;2619;47.868;11.892;2023-03-14T10:25:00;1.30;;;0.30;;
5199;SDS011;2619;47.868;11.892;2023-03-14T10:27:32;1.80;;;0.47;;
5199;SDS011;2619;47.868;11.892;2023-03-14T10:30:00;1.50;;;0.30;;
5199;SDS011;2619;47.868;11.892;2023-03-14T10:37:50;1.30;;;0.30;;
5199;SDS011;2619;47.868;11.892;2023-03-14T10:40:33;2.23;;;0.30;;
5199;SDS011;2619;47.868;11.892;2023-03-14T10:43:06;1.30;;;0.30;;
5199;SDS011;2619;47.868;11.892;2023-03-14T10:45:39;1.40;;;0.30;;
5199;SDS011;2619;47.868;11.892;2023-03-14T10:48:50;4.20;;;1.10;;
5199;SDS011;2619;47.868;11.892;2023-03-14T10:53:50;1.30;;;0.30;;
5199;SDS011;2619;47.868;11.892;2023-03-14T10:56:23;1.60;;;0.50;;
5199;SDS011;2619;47.868;11.892;2023-03-14T10:58:50;1.40;;;0.40;;
5199;SDS011;2619;47.868;11.892;2023-03-14T11:03:55;3.77;;;1.00;;
5199;SDS011;2619;47.868;11.892;2023-03-14T11:09:07;3.83;;;0.80;;
5199;SDS011;2619;47.868;11.892;2023-03-14T11:11:58;1.50;;;0.40;;
5199;SDS011;2619;47.868;11.892;2023-03-14T11:14:45;3.20;;;0.67;;
5199;SDS011;2619;47.868;11.892;2023-03-14T11:17:24;3.50;;;0.83;;
5199;SDS011;2619;47.868;11.892;2023-03-14T11:22:43;1.43;;;0.40;;
5199;SDS011;2619;47.868;11.892;2023-03-14T11:25:22;1.93;;;0.60;;
5199;SDS011;2619;47.868;11.892;2023-03-14T11:31:23;1.60;;;0.60;;
5199;SDS011;2619;47.868;11.892;2023-03-14T11:33:56;1.90;;;0.53;;
5199;SDS011;2619;47.868;11.892;2023-03-14T11:36:33;2.10;;;0.53;;
5199;SDS011;2619;47.868;11.892;2023-03-14T11:39:14;1.70;;;0.47;;
5199;SDS011;2619;47.868;11.892;2023-03-14T11:41:51;1.30;;;0.40;;
5199;SDS011;2619;47.868;11.892;2023-03-14T11:46:48;1.30;;;0.30;;
5199;SDS011;2619;47.868;11.892;2023-03-14T11:51:52;1.80;;;0.53;;
5199;SDS011;2619;47.868;11.892;2023-03-14T11:54:46;1.50;;;0.40;;
5199;SDS011;2619;47.868;11.892;2023-03-14T11:57:32;2.83;;;0.30;;
5199;SDS011;2619;47.868;11.892;2023-03-14T12:00:02;5.47;;;1.17;;
5199;SDS011;2619;47.868;11.892;2023-03-14T12:10:48;1.23;;;0.30;;
5199;SDS011;2619;47.868;11.892;2023-03-14T12:13:17;4.40;;;2.00;;
5199;SDS011;2619;47.868;11.892;2023-03-14T12:15:48;2.70;;;0.80;;
5199;SDS011;2619;47.868;11.892;2023-03-14T12:18:21;1.43;;;0.40;;
5199;SDS011;2619;47.868;11.892;2023-03-14T12:20:54;9.70;;;0.63;;
5199;SDS011;2619;47.868;11.892;2023-03-14T12:23:42;4.43;;;0.50;;
5199;SDS011;2619;47.868;11.892;2023-03-14T12:41:53;2.47;;;0.40;;
5199;SDS011;2619;47.868;11.892;2023-03-14T12:44:47;2.77;;;0.50;;
5199;SDS011;2619;47.868;11.892;2023-03-14T12:49:49;1.77;;;0.30;;
5199;SDS011;2619;47.868;11.892;2023-03-14T12:52:20;1.48;;;0.40;;
5199;SDS011;2619;47.868;11.892;2023-03-14T12:55:12;1.50;;;0.53;;
5199;SDS011;2619;47.868;11.892;2023-03-14T12:58:31;2.70;;;0.50;;
5199;SDS011;2619;47.868;11.892;2023-03-14T13:00:44;2.33;;;0.60;;
5199;SDS011;2619;47.868;11.892;2023-03-14T13:03:16;1.77;;;0.50;;
5199;SDS011;2619;47.868;11.892;2023-03-14T13:08:33;2.50;;;0.50;;
5199;SDS011;2619;47.868;11.892;2023-03-14T13:11:01;3.00;;;0.60;;
5199;SDS011;2619;47.868;11.892;2023-03-14T13:13:30;5.77;;;0.60;;
5199;SDS011;2619;47.868;11.892;2023-03-14T13:16:00;1.97;;;0.80;;
5199;SDS011;2619;47.868;11.892;2023-03-14T13:18:32;1.63;;;0.50;;
5199;SDS011;2619;47.868;11.892;2023-03-14T13:21:02;3.30;;;0.60;;
5199;SDS011;2619;47.868;11.892;2023-03-14T13:23:59;2.00;;;0.63;;
5199;SDS011;2619;47.868;11.892;2023-03-14T13:26:43;1.90;;;0.43;;
5199;SDS011;2619;47.868;11.892;2023-03-14T13:29:22;1.30;;;0.40;;
5199;SDS011;2619;47.868;11.892;2023-03-14T13:31:58;1.40;;;0.30;;
5199;SDS011;2619;47.868;11.892;2023-03-14T13:34:26;1.40;;;0.30;;
5199;SDS011;2619;47.868;11.892;2023-03-14T13:36:54;1.40;;;0.30;;
5199;SDS011;2619;47.868;11.892;2023-03-14T13:39:20;1.20;;;0.30;;
5199;SDS011;2619;47.868;11.892;2023-03-14T13:41:53;1.20;;;0.30;;
5199;SDS011;2619;47.868;11.892;2023-03-14T13:47:02;1.40;;;0.40;;
5199;SDS011;2619;47.868;11.892;2023-03-14T13:49:30;3.20;;;1.20;;
5199;SDS011;2619;47.868;11.892;2023-03-14T13:52:00;1.50;;;0.30;;
5199;SDS011;2619;47.868;11.892;2023-03-14T13:54:26;1.20;;;0.30;;
5199;SDS011;2619;47.868;11.892;2023-03-14T13:56:59;1.97;;;0.50;;
5199;SDS011;2619;47.868;11.892;2023-03-14T13:59:35;2.20;;;0.80;;
5199;SDS011;2619;47.868;11.892;2023-03-14T14:02:03;1.30;;;0.40;;
5199;SDS011;2619;47.868;11.892;2023-03-14T14:04:37;1.30;;;0.30;;
5199;SDS011;2619;47.868;11.892;2023-03-14T14:07:09;1.30;;;0.40;;
5199;SDS011;2619;47.868;11.892;2023-03-14T14:09:45;1.53;;;0.60;;
5199;SDS011;2619;47.868;11.892;2023-03-14T14:12:14;1.20;;;0.30;;
5199;SDS011;2619;47.868;11.892;2023-03-14T14:15:07;2.10;;;0.40;;
5199;SDS011;2619;47.868;11.892;2023-03-14T14:17:47;1.50;;;0.40;;
5199;SDS011;2619;47.868;11.892;2023-03-14T14:20:35;2.13;;;0.63;;
5199;SDS011;2619;47.868;11.892;2023-03-14T14:23:05;1.30;;;0.30;;
5199;SDS011;2619;47.868;11.892;2023-03-14T14:25:35;1.97;;;0.50;;
5199;SDS011;2619;47.868;11.892;2023-03-14T14:28:20;1.20;;;0.30;;
5199;SDS011;2619;47.868;11.892;2023-03-14T14:30:59;1.30;;;0.30;;
5199;SDS011;2619;47.868;11.892;2023-03-14T14:36:30;2.87;;;0.50;;
5199;SDS011;2619;47.868;11.892;2023-03-14T14:39:09;1.30;;;0.30;;
5199;SDS011;2619;47.868;11.892;2023-03-14T14:42:03;1.70;;;0.47;;
5199;SDS011;2619;47.868;11.892;2023-03-14T14:44:32;3.50;;;0.40;;
5199;SDS011;2619;47.868;11.892;2023-03-14T14:47:01;1.90;;;0.40;;
5199;SDS011;2619;47.868;11.892;2023-03-14T14:49:32;1.80;;;0.53;;
5199;SDS011;2619;47.868;11.892;2023-03-14T14:52:02;2.07;;;0.40;;
5199;SDS011;2619;47.868;11.892;2023-03-14T14:54:36;4.70;;;0.40;;
5199;SDS011;2619;47.868;11.892;2023-03-14T14:57:05;1.50;;;0.50;;
5199;SDS011;2619;47.868;11.892;2023-03-14T14:59:42;1.80;;;0.40;;
5199;SDS011;2619;47.868;11.892;2023-03-14T15:02:24;1.20;;;0.30;;
5199;SDS011;2619;47.868;11.892;2023-03-14T15:04:55;1.50;;;0.40;;
5199;SDS011;2619;47.868;11.892;2023-03-14T15:07:21;1.50;;;0.30;;
5199;SDS011;2619;47.868;11.892;2023-03-14T15:09:46;1.70;;;0.50;;
5199;SDS011;2619;47.868;11.892;2023-03-14T15:12:12;1.40;;;0.30;;
5199;SDS011;2619;47.868;11.892;2023-03-14T15:14:38;1.50;;;0.30;;
5199;SDS011;2619;47.868;11.892;2023-03-14T15:17:03;1.40;;;0.40;;
5199;SDS011;2619;47.868;11.892;2023-03-14T15:19:30;1.60;;;0.40;;
5199;SDS011;2619;47.868;11.892;2023-03-14T15:21:57;1.70;;;0.40;;
5199;SDS011;2619;47.868;11.892;2023-03-14T15:24:23;2.10;;;0.50;;
5199;SDS011;2619;47.868;11.892;2023-03-14T15:26:49;2.90;;;0.50;;
5199;SDS011;2619;47.868;11.892;2023-03-14T15:29:15;1.40;;;0.30;;
5199;SDS011;2619;47.868;11.892;2023-03-14T15:31:40;1.47;;;0.43;;
5199;SDS011;2619;47.868;11.892;2023-03-14T15:34:08;2.00;;;0.77;;
5199;SDS011;2619;47.868;11.892;2023-03-14T15:36:34;1.80;;;0.47;;
5199;SDS011;2619;47.868;11.892;2023-03-14T15:39:00;1.60;;;0.40;;
5199;SDS011;2619;47.868;11.892;2023-03-14T15:41:27;1.30;;;0.30;;
5199;SDS011;2619;47.868;11.892;2023-03-14T15:43:53;2.90;;;0.67;;
5199;SDS011;2619;47.868;11.892;2023-03-14T15:46:19;1.60;;;0.40;;
5199;SDS011;2619;47.868;11.892;2023-03-14T15:48:46;1.40;;;0.30;;
5199;SDS011;2619;47.868;11.892;2023-03-14T15:51:13;2.03;;;0.60;;
5199;SDS011;2619;47.868;11.892;2023-03-14T15:53:39;1.60;;;0.60;;
5199;SDS011;2619;47.868;11.892;2023-03-14T15:56:06;1.63;;;0.53;;
5199;SDS011;2619;47.868;11.892;2023-03-14T15:58:35;2.07;;;0.80;;
5199;SDS011;2619;47.868;11.892;2023-03-14T16:01:05;1.90;;;0.80;;
5199;SDS011;2619;47.868;11.892;2023-03-14T16:03:33;2.80;;;0.80;;
5199;SDS011;2619;47.868;11.892;2023-03-14T16:05:59;1.57;;;0.50;;
5199;SDS011;2619;47.868;11.892;2023-03-14T16:08:24;1.73;;;0.60;;
5199;SDS011;2619;47.868;11.892;2023-03-14T16:10:51;1.83;;;0.63;;
5199;SDS011;2619;47.868;11.892;2023-03-14T16:13:17;1.90;;;0.80;;
5199;SDS011;2619;47.868;11.892;2023-03-14T16:15:51;2.37;;;0.83;;